Time;durP1;ratioP1;P1;durP2;ratioP2;P2;SDS_P1;SDS_P2;PMS_P1;PMS_P2;Temp;Humidity;BMP_temperature;BMP_pressure;BME280_temperature;BME280_humidity;BME280_pressure;Samples;Min_cycle;Max_cycle;Signal;HPM_P1;HPM_P2
2022/05/09 00:00:29;;;;;;;7.37;3.47;;;9.00;99.90;;;;;;4994862;28;20212;-74
2022/05/09 00:02:56;;;;;;;8.67;3.60;;;8.70;99.90;;;;;;4995287;28;20196;-74
2022/05/09 00:05:25;;;;;;;8.23;3.60;;;8.60;1.00;;;;;;4994866;28;20569;-74
2022/05/09 00:07:54;;;;;;;7.83;3.60;;;8.60;1.00;;;;;;4995181;28;20291;-74
2022/05/09 00:10:23;;;;;;;7.73;3.40;;;8.50;1.00;;;;;;4994462;28;20209;-74
2022/05/09 00:12:50;;;;;;;6.30;3.30;;;8.40;1.00;;;;;;4993954;28;20215;-74
2022/05/09 00:15:18;;;;;;;11.87;4.07;;;8.40;1.00;;;;;;4994833;28;20224;-74
2022/05/09 00:17:46;;;;;;;8.10;3.30;;;8.30;1.00;;;;;;4994526;28;20225;-74
2022/05/09 00:20:14;;;;;;;7.10;3.47;;;8.30;1.00;;;;;;4994278;28;20205;-74
2022/05/09 00:22:46;;;;;;;16.33;4.10;;;8.30;1.00;;;;;;4994604;28;20205;-74
2022/05/09 00:25:14;;;;;;;6.80;4.07;;;8.30;99.90;;;;;;4994171;28;20209;-74
2022/05/09 00:27:41;;;;;;;8.00;4.37;;;8.30;99.90;;;;;;4994605;28;20198;-74
2022/05/09 00:30:09;;;;;;;9.10;3.97;;;8.10;1.00;;;;;;4994178;28;20216;-74
2022/05/09 00:32:35;;;;;;;9.13;3.40;;;8.10;1.00;;;;;;4994422;28;20673;-74
2022/05/09 00:35:02;;;;;;;4.97;3.30;;;8.10;99.90;;;;;;4994325;28;20205;-74
2022/05/09 00:37:31;;;;;;;10.33;3.93;;;8.30;99.90;;;;;;4994072;28;20225;-74
2022/05/09 00:39:58;;;;;;;5.30;3.40;;;8.00;99.90;;;;;;4993770;28;20463;-74
2022/05/09 00:42:26;;;;;;;8.90;4.10;;;7.90;99.90;;;;;;4994295;28;20212;-74
2022/05/09 00:44:53;;;;;;;7.93;3.73;;;8.10;1.00;;;;;;4994148;28;20664;-74
2022/05/09 00:47:20;;;;;;;4.83;3.30;;;8.10;99.90;;;;;;4994011;28;20205;-74
2022/05/09 00:49:51;;;;;;;10.70;3.87;;;8.10;1.00;;;;;;4993690;28;20212;-74
2022/05/09 00:52:23;;;;;;;7.43;3.67;;;8.20;1.00;;;;;;4993838;28;20252;-74
2022/05/09 00:54:54;;;;;;;7.50;3.47;;;8.20;99.90;;;;;;4993716;28;20208;-74
2022/05/09 00:57:24;;;;;;;11.17;3.83;;;8.00;1.00;;;;;;4993757;28;20220;-66
2022/05/09 00:59:58;;;;;;;5.63;3.43;;;8.10;1.00;;;;;;4993528;28;20682;-66
2022/05/09 01:02:26;;;;;;;4.90;3.57;;;8.00;1.00;;;;;;4993773;28;20275;-66
2022/05/09 01:04:59;;;;;;;7.80;4.10;;;8.00;1.00;;;;;;4993527;28;20247;-66
2022/05/09 01:07:26;;;;;;;7.03;4.47;;;8.00;1.00;;;;;;4993774;28;20201;-66
2022/05/09 01:09:53;;;;;;;10.03;4.93;;;8.10;1.00;;;;;;4993291;28;20225;-66
2022/05/09 01:12:23;;;;;;;11.20;6.33;;;8.00;1.00;;;;;;4993824;28;20193;-66
2022/05/09 01:14:50;;;;;;;11.57;7.23;;;8.00;1.00;;;;;;4993453;28;20201;-66
2022/05/09 01:17:22;;;;;;;11.43;6.40;;;8.00;99.90;;;;;;4993367;28;20221;-66
2022/05/09 01:19:52;;;;;;;7.57;4.67;;;7.70;1.00;;;;;;4992995;28;20201;-65
2022/05/09 01:22:24;;;;;;;7.07;3.43;;;7.70;1.00;;;;;;4993395;28;20209;-66
2022/05/09 01:24:52;;;;;;;7.80;3.97;;;7.50;1.00;;;;;;4993594;28;20193;-66
2022/05/09 01:27:19;;;;;;;8.67;4.17;;;7.40;99.90;;;;;;4993338;28;20200;-65
2022/05/09 01:29:54;;;;;;;8.80;4.20;;;7.40;1.00;;;;;;4992991;28;20202;-66
2022/05/09 01:32:26;;;;;;;8.27;4.23;;;7.50;1.00;;;;;;4993303;28;20205;-66
2022/05/09 01:34:58;;;;;;;6.30;3.73;;;7.60;99.90;;;;;;4993153;28;20675;-66
2022/05/09 01:37:27;;;;;;;8.87;3.80;;;7.60;1.00;;;;;;4993198;28;20714;-66
2022/05/09 01:39:54;;;;;;;6.70;3.40;;;7.60;99.90;;;;;;4992916;28;20209;-66
2022/05/09 01:42:21;;;;;;;8.67;3.60;;;7.50;24.00;;;;;;4992945;28;20248;-66
2022/05/09 01:44:49;;;;;;;9.80;3.93;;;7.40;1.00;;;;;;4993042;28;20201;-65
2022/05/09 01:50:00;;;;;;;6.57;3.17;;;7.40;99.90;;;;;;4992869;28;20208;-66
2022/05/09 01:52:28;;;;;;;7.47;3.57;;;7.10;99.90;;;;;;4993145;28;20208;-65
2022/05/09 01:54:55;;;;;;;6.53;3.40;;;7.00;99.90;;;;;;4992935;28;20237;-65
2022/05/09 01:57:22;;;;;;;5.13;3.30;;;7.00;1.00;;;;;;4992735;28;20572;-66
2022/05/09 01:59:49;;;;;;;9.50;3.33;;;7.10;1.00;;;;;;4992739;28;20653;-66
2022/05/09 02:02:20;;;;;;;5.93;3.37;;;7.10;99.90;;;;;;4992928;28;20208;-65
2022/05/09 02:04:47;;;;;;;7.63;3.30;;;7.00;93.00;;;;;;4992890;28;20205;-66
2022/05/09 02:07:17;;;;;;;10.17;3.57;;;6.90;1.00;;;;;;4992834;28;20205;-66
2022/05/09 02:09:47;;;;;;;10.10;4.00;;;7.10;99.90;;;;;;4992751;28;20205;-66
2022/05/09 02:12:15;;;;;;;8.97;4.17;;;7.20;99.90;;;;;;4992874;28;20731;-66
2022/05/09 02:14:43;;;;;;;8.03;3.47;;;7.20;99.90;;;;;;4992827;28;20726;-66
2022/05/09 02:17:11;;;;;;;9.53;4.00;;;7.20;99.90;;;;;;4993095;28;20208;-65
2022/05/09 02:19:40;;;;;;;9.20;3.63;;;7.20;86.20;;;;;;4992531;28;20201;-66
2022/05/09 02:22:09;;;;;;;7.90;3.47;;;7.10;75.30;;;;;;4992568;28;20243;-66
2022/05/09 02:24:38;;;;;;;13.67;3.63;;;7.10;1.00;;;;;;4993000;28;20705;-66
2022/05/09 02:27:08;;;;;;;6.93;4.10;;;7.10;1.00;;;;;;4992609;28;20541;-66
2022/05/09 02:29:37;;;;;;;9.17;4.40;;;7.00;1.00;;;;;;4992483;28;20271;-66
2022/05/09 02:32:06;;;;;;;10.40;4.30;;;6.90;1.00;;;;;;4992815;28;20612;-66
2022/05/09 02:34:33;;;;;;;9.83;4.07;;;7.00;96.60;;;;;;4992611;28;20260;-66
2022/05/09 02:37:00;;;;;;;10.60;3.90;;;7.00;99.90;;;;;;4995413;28;20205;-65
2022/05/09 02:39:27;;;;;;;8.77;4.10;;;7.00;99.90;;;;;;4995954;28;20235;-66
2022/05/09 02:41:55;;;;;;;10.27;4.20;;;7.00;99.90;;;;;;4996357;28;20247;-65
2022/05/09 02:44:23;;;;;;;9.73;5.07;;;7.10;99.90;;;;;;4996287;28;20212;-66
2022/05/09 02:46:50;;;;;;;8.10;3.93;;;7.00;99.90;;;;;;4996167;28;20279;-66
2022/05/09 02:49:18;;;;;;;10.40;5.10;;;7.00;99.90;;;;;;4995977;28;20205;-66
2022/05/09 02:51:46;;;;;;;9.13;4.10;;;6.90;99.90;;;;;;4996023;28;20205;-66
2022/05/09 02:54:13;;;;;;;13.87;4.80;;;6.90;99.90;;;;;;4996408;28;20209;-66
2022/05/09 02:56:40;;;;;;;8.97;3.60;;;6.70;99.90;;;;;;4995924;28;20613;-66
2022/05/09 02:59:07;;;;;;;8.23;4.10;;;6.70;99.90;;;;;;4995871;28;20263;-66
2022/05/09 03:01:36;;;;;;;9.00;5.40;;;6.70;1.00;;;;;;4996421;28;20620;-66
2022/05/09 03:06:47;;;;;;;8.97;4.50;;;6.60;1.00;;;;;;4995943;28;20203;-65
2022/05/09 03:09:14;;;;;;;9.63;4.70;;;6.60;1.00;;;;;;4995541;28;20668;-66
2022/05/09 03:11:41;;;;;;;9.47;4.97;;;6.40;1.00;;;;;;4995817;28;20566;-66
2022/05/09 03:14:08;;;;;;;10.60;5.17;;;6.40;1.00;;;;;;4995667;28;20287;-66
2022/05/09 03:16:37;;;;;;;11.17;4.93;;;6.50;1.00;;;;;;4995815;28;20224;-66
2022/05/09 03:19:04;;;;;;;12.83;5.47;;;6.40;1.00;;;;;;4995274;28;20634;-66
2022/05/09 03:21:31;;;;;;;11.17;5.67;;;6.40;1.00;;;;;;4995709;28;20295;-66
2022/05/09 03:23:58;;;;;;;11.10;5.33;;;6.40;1.00;;;;;;4995612;28;20248;-66
2022/05/09 03:26:25;;;;;;;11.97;4.97;;;6.40;1.00;;;;;;4995601;28;20236;-65
2022/05/09 03:28:52;;;;;;;11.40;5.13;;;6.40;1.00;;;;;;4995461;28;20193;-66
2022/05/09 03:31:19;;;;;;;9.90;4.67;;;6.40;1.00;;;;;;4995484;28;20207;-66
2022/05/09 03:33:48;;;;;;;9.33;5.07;;;6.50;1.00;;;;;;4995724;28;20297;-65
2022/05/09 03:36:15;;;;;;;11.93;5.47;;;6.40;99.90;;;;;;4995450;28;20197;-66
2022/05/09 03:38:42;;;;;;;13.03;5.60;;;6.30;1.00;;;;;;4995040;28;20275;-66
2022/05/09 03:41:09;;;;;;;10.87;4.83;;;6.30;1.00;;;;;;4995089;28;20217;-66
2022/05/09 03:43:36;;;;;;;11.17;5.33;;;6.30;99.90;;;;;;4995521;28;20209;-66
2022/05/09 03:46:03;;;;;;;9.77;5.30;;;6.30;1.00;;;;;;4995253;28;20251;-65
2022/05/09 03:48:30;;;;;;;10.13;4.83;;;6.50;1.00;;;;;;4993878;28;20268;-66
2022/05/09 03:51:01;;;;;;;11.47;5.63;;;6.50;1.00;;;;;;4995062;28;20656;-66
2022/05/09 03:53:28;;;;;;;8.77;4.70;;;6.70;1.00;;;;;;4995435;28;20683;-65
2022/05/09 03:55:56;;;;;;;9.37;4.40;;;7.10;1.00;;;;;;4994983;28;20240;-66
2022/05/09 03:58:23;;;;;;;10.80;4.03;;;7.40;1.00;;;;;;4994845;28;20264;-66
2022/05/09 04:00:51;;;;;;;9.87;4.03;;;7.30;1.00;;;;;;4994743;28;20667;-66
2022/05/09 04:03:19;;;;;;;9.37;4.13;;;7.50;99.90;;;;;;4994971;28;20652;-66
2022/05/09 04:05:46;;;;;;;9.30;3.87;;;8.20;1.00;;;;;;4994882;28;20245;-66
2022/05/09 04:08:17;;;;;;;8.57;4.27;;;8.60;1.00;;;;;;4994726;28;20287;-66
2022/05/09 04:10:45;;;;;;;7.27;4.20;;;8.90;1.00;;;;;;4994499;28;20275;-66
2022/05/09 04:13:12;;;;;;;10.77;4.00;;;8.80;1.00;;;;;;4994708;28;20197;-66
2022/05/09 04:18:26;;;;;;;6.67;3.77;;;9.10;1.00;;;;;;4994451;28;20226;-66
2022/05/09 04:20:53;;;;;;;7.07;3.80;;;9.00;99.90;;;;;;4994263;28;20201;-66
2022/05/09 04:23:22;;;;;;;6.53;4.03;;;9.30;99.90;;;;;;4994473;28;20197;-66
2022/05/09 04:25:50;;;;;;;8.23;4.03;;;9.50;1.00;;;;;;4994575;28;20209;-66
2022/05/09 04:28:18;;;;;;;9.57;4.20;;;9.90;99.90;;;;;;4994419;28;20217;-66
2022/05/09 04:30:46;;;;;;;12.07;4.50;;;9.50;1.00;;;;;;4993906;28;20243;-66
2022/05/09 04:33:13;;;;;;;8.90;4.17;;;9.70;1.00;;;;;;4994228;28;20205;-66
2022/05/09 04:35:42;;;;;;;7.63;3.97;;;8.80;99.90;;;;;;4994240;28;20434;-66
2022/05/09 04:38:14;;;;;;;9.40;4.57;;;8.70;1.00;;;;;;4994317;28;20225;-66
2022/05/09 04:40:42;;;;;;;6.90;3.67;;;9.40;1.00;;;;;;4993714;28;20209;-66
2022/05/09 04:43:09;;;;;;;11.20;4.50;;;9.50;1.00;;;;;;4994106;28;20652;-66
2022/05/09 04:45:36;;;;;;;7.33;3.80;;;9.50;1.00;;;;;;4993982;28;20602;-66
2022/05/09 04:48:04;;;;;;;4.90;3.30;;;9.70;1.00;;;;;;4994047;28;20201;-66
2022/05/09 04:50:34;;;;;;;7.03;3.40;;;10.10;99.90;;;;;;4993660;28;20209;-66
2022/05/09 04:53:02;;;;;;;5.83;3.00;;;10.30;1.00;;;;;;4994198;28;20468;-66
2022/05/09 04:55:29;;;;;;;8.30;3.50;;;10.50;1.00;;;;;;4994157;28;20232;-66
2022/05/09 04:57:57;;;;;;;5.27;3.40;;;11.70;1.00;;;;;;4993904;28;20197;-66
2022/05/09 05:00:26;;;;;;;4.97;3.40;;;11.90;99.90;;;;;;4993266;28;20201;-66
2022/05/09 05:02:54;;;;;;;6.37;3.80;;;10.80;99.90;;;;;;4993757;28;20248;-66
2022/05/09 05:05:22;;;;;;;8.77;4.10;;;11.70;99.90;;;;;;4993765;28;20271;-66
2022/05/09 05:07:49;;;;;;;8.87;3.63;;;12.80;1.00;;;;;;4993684;28;20625;-66
2022/05/09 05:10:19;;;;;;;10.50;4.10;;;13.10;99.90;;;;;;4993289;28;20201;-66
2022/05/09 05:12:46;;;;;;;7.53;3.87;;;13.40;99.90;;;;;;4993608;28;20275;-66
2022/05/09 05:15:15;;;;;;;9.87;3.77;;;13.20;3.40;;;;;;4993406;28;20205;-66
2022/05/09 05:17:42;;;;;;;8.23;4.17;;;12.40;99.90;;;;;;4993496;28;20636;-66
2022/05/09 05:20:15;;;;;;;9.50;4.40;;;11.80;1.00;;;;;;4993002;28;20228;-66
2022/05/09 05:22:43;;;;;;;9.57;3.60;;;11.80;1.00;;;;;;4993380;28;20618;-66
2022/05/09 05:25:12;;;;;;;7.53;3.70;;;12.90;99.90;;;;;;4993305;28;20244;-66
2022/05/09 05:27:39;;;;;;;8.53;4.00;;;12.50;99.90;;;;;;4993243;28;20205;-66
2022/05/09 05:30:09;;;;;;;6.97;3.60;;;11.80;1.00;;;;;;4992990;28;20256;-66
2022/05/09 05:32:41;;;;;;;7.47;3.43;;;11.70;1.00;;;;;;4993345;28;20216;-66
2022/05/09 05:35:10;;;;;;;7.33;3.70;;;11.00;19.70;;;;;;4993422;28;20209;-66
2022/05/09 05:37:37;;;;;;;11.93;4.03;;;10.80;1.00;;;;;;4993270;28;20205;-66
2022/05/09 05:40:05;;;;;;;9.03;3.73;;;11.10;1.00;;;;;;4992547;28;20231;-66
2022/05/09 05:42:33;;;;;;;8.87;4.50;;;10.50;99.90;;;;;;4993459;28;20211;-66
2022/05/09 05:45:00;;;;;;;8.53;4.67;;;10.60;99.90;;;;;;4993303;28;20204;-66
2022/05/09 05:47:27;;;;;;;9.90;4.30;;;10.80;1.00;;;;;;4993100;28;20664;-66
2022/05/09 05:49:57;;;;;;;8.33;4.23;;;11.00;1.00;;;;;;4993017;28;20271;-66
2022/05/09 05:52:24;;;;;;;10.90;5.00;;;11.20;1.00;;;;;;4992951;28;20287;-66
2022/05/09 05:54:51;;;;;;;7.87;4.50;;;10.80;99.90;;;;;;4993123;28;20200;-66
2022/05/09 05:57:20;;;;;;;8.40;4.80;;;10.90;1.00;;;;;;4992883;28;20251;-65
2022/05/09 05:59:51;;;;;;;11.23;4.50;;;11.00;1.00;;;;;;4992700;28;20268;-66
2022/05/09 06:02:19;;;;;;;10.40;4.97;;;10.90;1.00;;;;;;4992774;28;20201;-66
2022/05/09 06:04:47;;;;;;;9.20;4.63;;;11.00;99.90;;;;;;4992892;28;20283;-66
2022/05/09 06:07:15;;;;;;;12.03;4.80;;;11.20;99.90;;;;;;4992640;28;20205;-66
2022/05/09 06:09:44;;;;;;;11.03;4.73;;;11.30;99.90;;;;;;4992649;28;20259;-66
2022/05/09 06:12:12;;;;;;;11.53;4.40;;;11.40;99.90;;;;;;4995899;28;20255;-66
2022/05/09 06:14:40;;;;;;;8.07;4.70;;;11.60;90.80;;;;;;4996983;28;20714;-66
2022/05/09 06:17:08;;;;;;;9.47;4.47;;;11.80;37.70;;;;;;4996813;28;20192;-66
2022/05/09 06:19:35;;;;;;;8.00;3.90;;;11.80;1.00;;;;;;4997058;28;20228;-67
2022/05/09 06:22:02;;;;;;;9.47;4.40;;;11.60;1.00;;;;;;4996593;28;20656;-66
2022/05/09 06:24:31;;;;;;;13.10;4.57;;;11.80;1.00;;;;;;4996619;28;20263;-66
2022/05/09 06:26:58;;;;;;;8.27;4.07;;;12.00;1.00;;;;;;4996655;28;20267;-66
2022/05/09 06:29:25;;;;;;;9.23;4.23;;;11.90;1.00;;;;;;4996434;28;20243;-66
2022/05/09 06:31:52;;;;;;;10.90;4.43;;;12.00;85.10;;;;;;4996340;28;20201;-66
2022/05/09 06:34:19;;;;;;;8.80;4.50;;;12.10;99.90;;;;;;4996647;28;20224;-68
2022/05/09 06:36:46;;;;;;;9.43;3.60;;;12.30;1.00;;;;;;4996361;28;20691;-68
2022/05/09 06:39:13;;;;;;;7.23;4.03;;;12.70;1.00;;;;;;4996266;28;20225;-68
2022/05/09 06:41:42;;;;;;;5.53;3.70;;;12.90;1.00;;;;;;4996205;28;20205;-68
2022/05/09 06:44:09;;;;;;;7.73;3.43;;;12.70;99.90;;;;;;4996420;28;20205;-68
2022/05/09 06:46:37;;;;;;;11.33;3.30;;;12.60;99.90;;;;;;4996328;28;20215;-68
2022/05/09 06:49:04;;;;;;;7.40;3.30;;;12.70;1.00;;;;;;4996255;28;20208;-68
2022/05/09 06:51:31;;;;;;;9.27;3.73;;;12.70;99.90;;;;;;4996396;28;20201;-68
2022/05/09 06:53:58;;;;;;;8.37;3.60;;;12.90;96.40;;;;;;4996198;28;20201;-68
2022/05/09 06:56:25;;;;;;;7.10;3.80;;;12.90;99.90;;;;;;4996269;28;20723;-68
2022/05/09 06:58:53;;;;;;;9.43;4.07;;;13.00;99.90;;;;;;4995678;28;20707;-68
2022/05/09 07:01:21;;;;;;;10.63;4.33;;;13.50;99.90;;;;;;4995939;28;20248;-68
2022/05/09 07:03:48;;;;;;;10.37;4.13;;;14.10;1.00;;;;;;4995955;28;20220;-68
2022/05/09 07:06:16;;;;;;;9.53;3.70;;;14.30;1.00;;;;;;4995885;28;20201;-68
2022/05/09 07:08:44;;;;;;;6.93;3.53;;;14.40;1.00;;;;;;4995830;28;20227;-68
2022/05/09 07:11:12;;;;;;;10.17;3.23;;;14.70;1.00;;;;;;4995766;28;20204;-68
2022/05/09 07:13:41;;;;;;;8.50;3.70;;;13.90;1.00;;;;;;4995830;28;20267;-68
2022/05/09 07:16:11;;;;;;;7.07;3.40;;;13.70;1.00;;;;;;4996016;28;20204;-68
2022/05/09 07:18:39;;;;;;;7.27;4.20;;;13.50;1.00;;;;;;4995696;28;20215;-68
2022/05/09 07:21:07;;;;;;;9.43;3.87;;;13.70;1.00;;;;;;4995623;28;20248;-68
2022/05/09 07:23:34;;;;;;;11.63;3.70;;;13.60;1.00;;;;;;4995416;28;20263;-68
2022/05/09 07:26:02;;;;;;;8.17;3.67;;;13.60;1.00;;;;;;4995929;28;20347;-68
2022/05/09 07:28:30;;;;;;;7.80;3.30;;;13.70;1.00;;;;;;4995859;28;20276;-68
2022/05/09 07:30:58;;;;;;;6.30;3.10;;;13.70;1.00;;;;;;4995517;28;20288;-68
2022/05/09 07:33:28;;;;;;;7.37;3.53;;;13.80;1.00;;;;;;4995313;28;20656;-68
2022/05/09 07:35:55;;;;;;;8.90;3.20;;;13.90;1.00;;;;;;4995805;28;20205;-68
2022/05/09 07:38:22;;;;;;;8.47;3.80;;;14.00;1.00;;;;;;4995247;28;20264;-68
2022/05/09 07:40:49;;;;;;;7.80;2.97;;;14.00;1.00;;;;;;4994949;28;20224;-68
2022/05/09 07:43:18;;;;;;;9.50;3.90;;;14.00;1.00;;;;;;4995234;28;20540;-68
2022/05/09 07:45:47;;;;;;;8.57;3.43;;;14.30;1.00;;;;;;4995305;28;20356;-68
2022/05/09 07:48:16;;;;;;;12.07;3.80;;;14.30;1.00;;;;;;4995166;28;20244;-68
2022/05/09 07:50:44;;;;;;;7.50;3.33;;;14.40;1.00;;;;;;4994820;28;20248;-68
2022/05/09 07:53:13;;;;;;;7.03;3.57;;;14.40;1.00;;;;;;4994805;28;20264;-68
2022/05/09 07:55:42;;;;;;;98.80;8.93;;;14.30;1.00;;;;;;4995061;28;20232;-68
2022/05/09 07:58:09;;;;;;;14.33;4.27;;;14.70;1.00;;;;;;4995061;28;20205;-68
2022/05/09 08:00:36;;;;;;;10.07;3.40;;;14.70;1.00;;;;;;4994735;28;20221;-68
2022/05/09 08:03:04;;;;;;;11.70;3.13;;;14.70;1.00;;;;;;4994899;28;20597;-68
2022/05/09 08:05:31;;;;;;;7.17;3.17;;;14.70;1.00;;;;;;4995204;28;20209;-68
2022/05/09 08:08:01;;;;;;;14.20;4.10;;;14.90;1.00;;;;;;4994810;28;20201;-68
2022/05/09 08:10:29;;;;;;;10.20;3.20;;;15.00;1.00;;;;;;4994368;28;20205;-68
2022/05/09 08:12:58;;;;;;;6.73;3.40;;;14.90;1.00;;;;;;4994733;28;20259;-68
2022/05/09 08:15:26;;;;;;;7.37;3.27;;;14.90;1.00;;;;;;4994883;28;20299;-69
2022/05/09 08:17:54;;;;;;;10.67;3.20;;;15.10;1.00;;;;;;4994630;28;20205;-68
2022/05/09 08:20:23;;;;;;;6.53;3.30;;;15.00;1.00;;;;;;4994168;28;20270;-68
2022/05/09 08:23:06;;;;;;;6.83;3.47;;;15.10;1.00;;;;;;4994556;28;20350;-68
2022/05/09 08:25:36;;;;;;;8.33;3.07;;;15.20;1.00;;;;;;4978182;28;20643;-68
2022/05/09 08:28:03;;;;;;;8.83;3.60;;;15.20;1.00;;;;;;4994679;28;20227;-68
2022/05/09 08:30:32;;;;;;;9.90;3.77;;;15.50;1.00;;;;;;4993997;28;20204;-68
2022/05/09 08:33:00;;;;;;;4.47;2.63;;;15.70;1.00;;;;;;4994225;28;20287;-68
2022/05/09 08:35:27;;;;;;;11.63;3.33;;;15.80;1.00;;;;;;4993871;28;20652;-68
2022/05/09 08:37:54;;;;;;;10.67;3.43;;;15.80;1.00;;;;;;4994187;28;20204;-68
2022/05/09 08:40:36;;;;;;;6.07;2.83;;;15.90;1.00;;;;;;4993856;28;20221;-68
2022/05/09 08:43:12;;;;;;;8.23;2.93;;;16.00;1.00;;;;;;4994201;28;20253;-68
2022/05/09 08:45:43;;;;;;;8.63;3.43;;;16.10;1.00;;;;;;4993969;28;20192;-68
2022/05/09 08:48:32;;;;;;;7.53;2.93;;;16.10;1.00;;;;;;4994261;28;20213;-69
2022/05/09 08:51:17;;;;;;;5.73;3.03;;;16.60;1.00;;;;;;4993812;28;20197;-68
2022/05/09 08:53:46;;;;;;;7.17;2.70;;;16.80;99.90;;;;;;4993887;28;20770;-68
2022/05/09 08:56:18;;;;;;;8.57;3.13;;;17.00;99.90;;;;;;4993854;28;20209;-68
2022/05/09 08:58:49;;;;;;;5.87;2.93;;;17.50;99.90;;;;;;4993763;28;20212;-68
2022/05/09 09:01:18;;;;;;;12.35;3.13;;;18.10;99.90;;;;;;4993562;28;20225;-69
2022/05/09 09:03:55;;;;;;;7.15;3.13;;;18.00;99.90;;;;;;4993773;28;20201;-68
2022/05/09 09:06:39;;;;;;;4.90;2.40;;;18.10;99.90;;;;;;4993576;28;20223;-68
2022/05/09 09:09:19;;;;;;;6.85;2.72;;;18.50;99.90;;;;;;4993569;28;20247;-68
2022/05/09 09:11:56;;;;;;;6.95;2.78;;;18.60;99.90;;;;;;4993842;28;20216;-68
2022/05/09 09:14:37;;;;;;;8.07;3.55;;;19.10;99.90;;;;;;4993609;28;20203;-68
2022/05/09 09:17:12;;;;;;;6.63;2.80;;;19.20;99.90;;;;;;4993438;28;20200;-68
2022/05/09 09:20:04;;;;;;;6.90;3.03;;;19.40;99.90;;;;;;4993305;28;20499;-68
2022/05/09 09:22:50;;;;;;;6.22;2.47;;;19.30;99.90;;;;;;4993628;28;20602;-68
2022/05/09 09:25:28;;;;;;;8.27;3.17;;;19.40;99.90;;;;;;4993466;28;20204;-68
2022/05/09 09:28:01;;;;;;;8.98;2.35;;;19.50;99.90;;;;;;4993386;28;20615;-68
2022/05/09 09:30:29;;;;;;;6.63;2.60;;;19.60;99.90;;;;;;4993153;28;20726;-68
2022/05/09 09:32:59;;;;;;;7.47;2.80;;;19.90;99.90;;;;;;4993349;28;20209;-68
2022/05/09 09:35:37;;;;;;;5.65;2.42;;;20.20;99.90;;;;;;4993117;28;20259;-69
2022/05/09 09:38:13;;;;;;;6.72;2.65;;;21.00;99.90;;;;;;4993546;28;20339;-69
2022/05/09 09:40:41;;;;;;;6.00;2.60;;;20.80;99.90;;;;;;4992723;28;20268;-68
2022/05/09 09:43:09;;;;;;;5.00;2.58;;;20.20;99.90;;;;;;4993190;28;20248;-69
2022/05/09 09:45:40;;;;;;;7.53;3.03;;;19.90;99.90;;;;;;4992237;28;20209;-69
2022/05/09 09:48:13;;;;;;;7.45;2.85;;;20.50;99.90;;;;;;4993524;28;20213;-68
2022/05/09 09:50:54;;;;;;;6.13;2.60;;;20.20;99.90;;;;;;4992832;28;20543;-69
2022/05/09 09:53:35;;;;;;;8.63;2.47;;;20.40;99.90;;;;;;4993095;28;20267;-68
2022/05/09 09:56:06;;;;;;;6.55;2.28;;;20.70;99.90;;;;;;4992868;28;20201;-69
2022/05/09 09:58:38;;;;;;;6.25;2.95;;;20.50;99.90;;;;;;4993273;28;20203;-69
2022/05/09 10:01:11;;;;;;;6.05;2.72;;;21.20;99.90;;;;;;4992630;28;20224;-69
2022/05/09 10:03:40;;;;;;;6.50;2.50;;;21.10;99.90;;;;;;4992976;28;20243;-69
2022/05/09 10:06:18;;;;;;;4.75;2.20;;;21.00;99.90;;;;;;4993009;28;20197;-69
2022/05/09 10:08:46;;;;;;;6.78;2.58;;;20.90;99.90;;;;;;4992740;28;20232;-69
2022/05/09 10:11:22;;;;;;;3.95;2.47;;;21.50;99.90;;;;;;4992717;28;20212;-69
2022/05/09 10:13:52;;;;;;;5.05;2.75;;;21.10;99.90;;;;;;4992862;28;20572;-69
2022/05/09 10:16:27;;;;;;;7.40;2.28;;;21.30;99.90;;;;;;4992723;28;20205;-69
2022/05/09 10:18:55;;;;;;;5.45;2.38;;;21.40;99.90;;;;;;4992585;28;20222;-69
2022/05/09 10:27:27;;;;;;;5.15;2.60;;;22.10;99.90;;;;;;4932620;29;20332;-69
2022/05/09 10:29:57;;;;;;;7.50;2.65;;;22.70;99.90;;;;;;4973168;28;20208;-69
2022/05/09 10:32:30;;;;;;;9.55;3.00;;;21.80;99.90;;;;;;4992585;28;20345;-69
2022/05/09 10:35:02;;;;;;;7.63;2.75;;;21.50;99.90;;;;;;4992675;28;20208;-69
2022/05/09 10:37:40;;;;;;;5.35;2.58;;;21.30;99.90;;;;;;4992834;28;20212;-69
2022/05/09 10:40:12;;;;;;;7.43;2.80;;;21.20;99.90;;;;;;4992244;28;20225;-69
2022/05/09 10:42:44;;;;;;;4.65;2.65;;;21.50;99.90;;;;;;4992709;28;20271;-69
2022/05/09 10:45:18;;;;;;;6.70;2.67;;;22.10;99.90;;;;;;4992641;28;20205;-69
2022/05/09 10:47:52;;;;;;;7.53;2.78;;;21.90;99.90;;;;;;4992421;28;20237;-69
2022/05/09 10:50:26;;;;;;;5.78;2.90;;;21.70;99.90;;;;;;4992469;28;20291;-69
2022/05/09 10:53:06;;;;;;;8.10;2.97;;;21.30;99.90;;;;;;4992428;28;20205;-69
2022/05/09 10:55:39;;;;;;;6.90;2.65;;;21.70;99.90;;;;;;4992744;28;20248;-69
2022/05/09 10:58:10;;;;;;;5.70;2.13;;;22.10;99.90;;;;;;4995214;28;20255;-69
2022/05/09 11:00:44;;;;;;;6.95;2.53;;;21.90;99.90;;;;;;4995796;28;20809;-69
2022/05/09 11:03:19;;;;;;;7.80;2.45;;;22.20;99.90;;;;;;4978208;28;20205;-69
2022/05/09 11:06:12;;;;;;;6.15;2.33;;;22.60;99.90;;;;;;4996176;28;20308;-69
2022/05/09 11:08:50;;;;;;;6.78;2.40;;;22.10;99.90;;;;;;4995875;28;20247;-69
2022/05/09 11:11:25;;;;;;;6.65;2.42;;;21.70;99.90;;;;;;4995812;28;20201;-69
2022/05/09 11:14:00;;;;;;;5.93;2.38;;;22.00;99.90;;;;;;4996044;28;20486;-69
2022/05/09 11:16:39;;;;;;;3.40;1.98;;;22.30;99.90;;;;;;4995699;28;20259;-69
2022/05/09 11:19:32;;;;;;;5.65;2.88;;;21.80;99.90;;;;;;4978264;28;20669;-69
2022/05/09 11:22:07;;;;;;;6.97;2.35;;;22.20;99.90;;;;;;4992569;28;20319;-69
2022/05/09 11:24:56;;;;;;;4.57;2.33;;;21.90;99.90;;;;;;4995488;28;20574;-69
2022/05/09 11:27:35;;;;;;;7.30;2.97;;;22.20;99.90;;;;;;4995658;28;20245;-69
2022/05/09 11:30:21;;;;;;;7.97;2.85;;;22.00;99.90;;;;;;4995515;28;20251;-69
2022/05/09 11:32:56;;;;;;;6.55;2.50;;;22.10;99.90;;;;;;4995385;28;20251;-69
2022/05/09 11:35:31;;;;;;;5.68;2.63;;;22.10;99.90;;;;;;4995494;28;20651;-69
2022/05/09 11:38:38;;;;;;;4.35;2.40;;;22.20;99.90;;;;;;4995520;28;20204;-69
2022/05/09 11:41:18;;;;;;;6.45;2.63;;;22.30;99.90;;;;;;4988504;28;20225;-69
2022/05/09 11:43:58;;;;;;;11.32;2.90;;;23.10;99.90;;;;;;4995439;28;20237;-69
2022/05/09 11:46:38;;;;;;;7.93;2.63;;;22.50;99.90;;;;;;4995379;28;20578;-69
2022/05/09 11:49:24;;;;;;;7.68;2.58;;;22.10;99.90;;;;;;4994808;28;20299;-69
2022/05/09 11:51:54;;;;;;;5.50;2.38;;;22.70;99.90;;;;;;4995178;28;20247;-69
2022/05/09 11:54:26;;;;;;;4.82;2.25;;;22.30;99.90;;;;;;4995090;28;20727;-69
2022/05/09 11:56:56;;;;;;;4.15;2.70;;;22.30;99.90;;;;;;4995074;28;20200;-69
2022/05/09 11:59:27;;;;;;;7.10;2.25;;;22.30;99.90;;;;;;4994549;28;20271;-69
2022/05/09 12:02:03;;;;;;;7.47;2.65;;;22.40;99.90;;;;;;4994921;28;20276;-69
2022/05/09 12:04:40;;;;;;;7.60;2.72;;;22.70;99.90;;;;;;4994995;28;20208;-69
2022/05/09 12:07:37;;;;;;;4.60;2.40;;;22.90;99.90;;;;;;4995260;28;20201;-69
2022/05/09 12:10:17;;;;;;;4.70;2.10;;;22.60;99.90;;;;;;4991203;28;20205;-68
2022/05/09 12:12:49;;;;;;;5.90;2.75;;;23.70;99.90;;;;;;4994712;28;20252;-69
2022/05/09 12:15:41;;;;;;;4.40;2.88;;;24.00;99.90;;;;;;4994761;28;20205;-68
2022/05/09 12:18:29;;;;;;;5.07;2.53;;;23.10;99.90;;;;;;4984263;28;20213;-69
2022/05/09 12:21:17;;;;;;;5.88;2.60;;;22.80;99.90;;;;;;4994322;28;20256;-69
2022/05/09 12:24:12;;;;;;;6.50;2.72;;;22.90;99.90;;;;;;4994424;28;20619;-69
2022/05/09 12:26:42;;;;;;;4.05;2.33;;;22.60;99.90;;;;;;4994804;28;20707;-69
2022/05/09 12:29:44;;;;;;;6.03;2.97;;;23.00;99.90;;;;;;4994336;28;20216;-69
2022/05/09 12:32:12;;;;;;;8.38;2.70;;;22.60;99.90;;;;;;4985019;28;20238;-69
2022/05/09 12:34:42;;;;;;;4.40;2.25;;;22.80;99.90;;;;;;4994141;28;20205;-69
2022/05/09 12:37:11;;;;;;;5.28;2.55;;;22.70;99.90;;;;;;4994276;28;20201;-69
2022/05/09 12:39:47;;;;;;;4.45;2.33;;;22.80;99.90;;;;;;4993822;28;20256;-69
2022/05/09 12:42:43;;;;;;;5.22;2.78;;;22.90;99.90;;;;;;4994195;28;20701;-69
2022/05/09 12:45:11;;;;;;;4.13;2.40;;;22.90;99.90;;;;;;4994317;28;20209;-69
2022/05/09 12:47:40;;;;;;;5.07;2.42;;;22.90;99.90;;;;;;4994196;28;20268;-69
2022/05/09 12:50:10;;;;;;;7.13;2.53;;;23.20;99.90;;;;;;4993673;28;20396;-69
2022/05/09 12:52:44;;;;;;;4.53;2.80;;;23.60;99.90;;;;;;4994004;28;20204;-69
2022/05/09 12:57:58;;;;;;;6.72;2.50;;;22.60;99.90;;;;;;4993941;28;20331;-69
2022/05/09 13:00:28;;;;;;;7.20;2.80;;;22.50;99.90;;;;;;4993606;28;20201;-69
2022/05/09 13:03:03;;;;;;;5.05;2.58;;;22.90;99.90;;;;;;4993974;28;20248;-69
2022/05/09 13:05:36;;;;;;;8.02;3.38;;;23.00;99.90;;;;;;4993645;28;20739;-69
2022/05/09 13:08:06;;;;;;;7.30;2.50;;;23.20;99.90;;;;;;4993674;28;20605;-69
2022/05/09 13:10:46;;;;;;;8.05;2.50;;;23.70;99.90;;;;;;4993351;28;20271;-68
2022/05/09 13:13:28;;;;;;;6.25;2.67;;;23.00;99.90;;;;;;4993636;28;20209;-68
2022/05/09 13:15:56;;;;;;;3.55;2.70;;;23.10;99.90;;;;;;4993481;28;20656;-67
2022/05/09 13:18:26;;;;;;;4.70;2.60;;;23.40;99.90;;;;;;4993689;28;20205;-67
2022/05/09 13:20:57;;;;;;;5.22;2.40;;;23.10;99.90;;;;;;4992807;28;20225;-67
2022/05/09 13:23:34;;;;;;;6.22;3.13;;;22.80;99.90;;;;;;4993478;28;20205;-67
2022/05/09 13:26:05;;;;;;;8.57;2.83;;;23.30;99.90;;;;;;4993280;28;20196;-67
2022/05/09 13:28:42;;;;;;;5.28;2.45;;;23.70;99.90;;;;;;4993535;28;20264;-66